Time;durP1;ratioP1;P1;durP2;ratioP2;P2;SDS_P1;SDS_P2;PMS_P1;PMS_P2;Temp;Humidity;BMP_temperature;BMP_pressure;BME280_temperature;BME280_humidity;BME280_pressure;Samples;Min_cycle;Max_cycle;Signal;HPM_P1;HPM_P2
2021/12/02 00:01:53;;;;;;;;;;;;;;;9.52;59.71;98283.84;4412555;32;20018;-91
2021/12/02 00:04:19;;;;;;;;;;;;;;;9.59;59.71;98285.19;4413294;32;19993;-91
2021/12/02 00:06:44;;;;;;;;;;;;;;;9.60;59.71;98286.87;4412124;32;19994;-91
2021/12/02 00:09:09;;;;;;;;;;;;;;;9.54;59.71;98298.44;4411477;32;33861;-92
2021/12/02 00:11:34;;;;;;;;;;;;;;;9.63;59.71;98298.88;4412019;32;20001;-90
2021/12/02 00:14:06;;;;;;;;;;;;;;;9.68;59.72;98297.72;4412083;32;20145;-90
2021/12/02 00:22:24;;;;;;;;;;;;;;;9.89;59.73;98294.91;4364267;32;20339;-90
2021/12/02 00:24:50;;;;;;;;;;;;;;;10.03;59.74;98295.03;4394436;32;20008;-90
2021/12/02 00:27:16;;;;;;;;;;;;;;;9.92;59.73;98306.00;4412571;32;19998;-91
2021/12/02 00:29:45;;;;;;;;;;;;;;;9.92;59.73;98297.34;4412166;32;19986;-91
2021/12/02 00:32:10;;;;;;;;;;;;;;;9.85;59.72;98297.69;4412198;32;19984;-91
2021/12/02 00:34:45;;;;;;;;;;;;;;;9.80;59.73;98291.06;4411586;32;29711;-92
2021/12/02 00:37:10;;;;;;;;;;;;;;;9.92;59.73;98290.41;4412166;32;20263;-91
2021/12/02 00:39:36;;;;;;;;;;;;;;;9.94;59.74;98291.19;4411990;32;19993;-92
2021/12/02 00:42:01;;;;;;;;;;;;;;;9.99;59.73;98290.94;4411404;32;21887;-90
2021/12/02 00:44:27;;;;;;;;;;;;;;;10.00;59.73;98292.63;4411983;32;20103;-92
2021/12/02 00:46:52;;;;;;;;;;;;;;;9.98;59.73;98284.06;4411895;32;20013;-90
2021/12/02 00:49:17;;;;;;;;;;;;;;;9.91;59.73;98280.91;4411669;32;20091;-92
2021/12/02 00:51:53;;;;;;;;;;;;;;;10.00;59.73;98275.25;4411859;32;19981;-91
2021/12/02 00:54:18;;;;;;;;;;;;;;;9.99;59.73;98276.19;4412107;32;20009;-93
2021/12/02 00:56:43;;;;;;;;;;;;;;;9.97;59.73;98266.78;4411947;32;20013;-92
2021/12/02 00:59:09;;;;;;;;;;;;;;;9.99;59.73;98272.75;4411831;32;19985;-91
2021/12/02 01:01:35;;;;;;;;;;;;;;;10.08;59.73;98280.03;4411554;32;20040;-90
2021/12/02 01:04:02;;;;;;;;;;;;;;;10.04;59.74;98289.75;4412033;32;20001;-90
2021/12/02 01:06:27;;;;;;;;;;;;;;;10.10;59.74;98283.38;4411426;32;20637;-89
2021/12/02 01:08:52;;;;;;;;;;;;;;;10.15;59.74;98278.78;4411585;32;20020;-89
2021/12/02 01:11:18;;;;;;;;;;;;;;;10.02;59.73;98277.78;4411103;32;20030;-89
2021/12/02 01:13:44;;;;;;;;;;;;;;;10.00;59.73;98274.41;4411643;32;20274;-89
2021/12/02 01:16:09;;;;;;;;;;;;;;;10.00;59.74;98290.00;4411653;32;20315;-90
2021/12/02 01:18:34;;;;;;;;;;;;;;;10.06;59.74;98298.31;4411248;32;20045;-90
2021/12/02 01:20:59;;;;;;;;;;;;;;;9.99;59.73;98288.34;4411309;32;26133;-90
2021/12/02 01:23:27;;;;;;;;;;;;;;;10.14;59.74;98279.69;4411327;32;20005;-89
2021/12/02 01:25:53;;;;;;;;;;;;;;;10.19;59.75;98285.50;4411717;32;19994;-90
2021/12/02 01:28:19;;;;;;;;;;;;;;;10.22;59.74;98284.53;4411129;32;19989;-89
2021/12/02 01:30:44;;;;;;;;;;;;;;;10.24;59.75;98272.28;4411044;32;20318;-90
2021/12/02 01:33:09;;;;;;;;;;;;;;;10.24;59.75;98277.50;4411088;32;20330;-89
2021/12/02 01:35:35;;;;;;;;;;;;;;;10.31;59.75;98276.22;4410829;32;26651;-90
2021/12/02 01:38:00;;;;;;;;;;;;;;;10.33;59.75;98275.22;4411624;32;20280;-89
2021/12/02 01:40:25;;;;;;;;;;;;;;;10.30;59.75;98264.16;4411271;32;20046;-90
2021/12/02 01:42:51;;;;;;;;;;;;;;;10.28;59.75;98269.44;4411094;32;19998;-90
2021/12/02 01:45:17;;;;;;;;;;;;;;;10.30;59.75;98264.16;4410991;32;20015;-91
2021/12/02 01:47:44;;;;;;;;;;;;;;;10.40;59.76;98260.09;4411194;32;20024;-90
2021/12/02 01:50:09;;;;;;;;;;;;;;;10.37;59.76;98258.53;4410924;32;20009;-90
2021/12/02 01:52:35;;;;;;;;;;;;;;;10.48;59.77;98250.16;4410765;32;21841;-90
2021/12/02 01:55:04;;;;;;;;;;;;;;;10.41;59.76;98252.25;4411027;32;20005;-90
2021/12/02 01:57:32;;;;;;;;;;;;;;;10.38;59.76;98246.34;4411021;32;19989;-90
2021/12/02 02:00:20;;;;;;;;;;;;;;;10.46;59.75;98249.41;4411311;32;20582;-90
2021/12/02 02:02:46;;;;;;;;;;;;;;;10.47;59.76;98250.22;4411018;32;19978;-90
2021/12/02 02:05:12;;;;;;;;;;;;;;;10.51;59.76;98254.34;4411022;32;20004;-91
2021/12/02 02:07:47;;;;;;;;;;;;;;;10.53;59.76;98244.69;4411431;32;19954;-90
2021/12/02 02:10:12;;;;;;;;;;;;;;;10.40;59.76;98253.16;4410854;32;20053;-90
2021/12/02 02:12:37;;;;;;;;;;;;;;;10.49;59.77;98250.97;4410780;32;19986;-92
2021/12/02 02:15:03;;;;;;;;;;;;;;;10.53;59.76;98252.47;4411532;32;20004;-92
2021/12/02 02:17:38;;;;;;;;;;;;;;;10.46;59.75;98249.41;4410901;32;19994;-93
2021/12/02 02:20:06;;;;;;;;;;;;;;;10.50;59.76;98250.06;4411638;32;19994;-91
2021/12/02 02:22:31;;;;;;;;;;;;;;;10.55;59.77;98256.69;4411253;32;20064;-92
2021/12/02 02:24:57;;;;;;;;;;;;;;;10.55;59.77;98246.25;4411022;32;20263;-91
2021/12/02 02:27:22;;;;;;;;;;;;;;;10.53;59.76;98249.88;4410730;32;19996;-91
2021/12/02 02:29:47;;;;;;;;;;;;;;;10.54;59.76;98244.59;4410431;32;19990;-92
2021/12/02 02:32:12;;;;;;;;;;;;;;;10.60;59.77;98241.63;4410809;32;19985;-91
2021/12/02 02:34:38;;;;;;;;;;;;;;;10.49;59.76;98233.59;4410525;32;20029;-92
2021/12/02 02:37:05;;;;;;;;;;;;;;;10.53;59.76;98227.31;4410313;32;19984;-91
2021/12/02 02:39:33;;;;;;;;;;;;;;;10.54;59.76;98230.75;4412216;32;20039;-93
2021/12/02 02:42:00;;;;;;;;;;;;;;;10.47;59.76;98225.06;4413040;32;20040;-93
2021/12/02 02:44:26;;;;;;;;;;;;;;;10.40;59.76;98229.72;4413015;32;19989;-92
2021/12/02 02:46:51;;;;;;;;;;;;;;;10.54;59.76;98231.59;4413037;32;19978;-92
2021/12/02 02:49:16;;;;;;;;;;;;;;;10.53;59.76;98232.50;4413077;32;20286;-92
2021/12/02 02:51:42;;;;;;;;;;;;;;;10.53;59.76;98231.66;4412648;32;20670;-92
2021/12/02 02:54:09;;;;;;;;;;;;;;;10.50;59.76;98243.09;4413041;32;20028;-92
2021/12/02 02:56:37;;;;;;;;;;;;;;;10.56;59.77;98234.94;4412931;32;19974;-92
2021/12/02 02:59:09;;;;;;;;;;;;;;;10.43;59.76;98241.75;4412820;32;19989;-92
2021/12/02 03:01:45;;;;;;;;;;;;;;;10.42;59.76;98243.53;4413377;32;20665;-92
2021/12/02 03:09:21;;;;;;;;;;;;;;;10.57;59.77;98233.16;4412740;32;20310;-91
2021/12/02 03:11:50;;;;;;;;;;;;;;;10.62;59.78;98229.38;4413718;32;19994;-93
2021/12/02 03:14:20;;;;;;;;;;;;;;;10.51;59.77;98230.91;4412899;32;19978;-92
2021/12/02 03:16:46;;;;;;;;;;;;;;;10.42;59.76;98235.72;4413095;32;19981;-92
2021/12/02 03:19:12;;;;;;;;;;;;;;;10.52;59.76;98230.84;4412923;32;19993;-92
2021/12/02 03:21:40;;;;;;;;;;;;;;;10.45;59.76;98232.09;4413290;32;20271;-92
2021/12/02 03:24:06;;;;;;;;;;;;;;;10.34;59.75;98242.25;4413070;32;19974;-91
2021/12/02 03:26:32;;;;;;;;;;;;;;;10.45;59.76;98245.12;4412775;32;20238;-93
2021/12/02 03:28:57;;;;;;;;;;;;;;;10.61;59.76;98248.53;4412317;32;20025;-91
2021/12/02 03:31:22;;;;;;;;;;;;;;;10.65;59.77;98252.66;4412511;32;20286;-92
2021/12/02 03:33:48;;;;;;;;;;;;;;;10.44;59.76;98249.47;4412571;32;20018;-92
2021/12/02 03:36:13;;;;;;;;;;;;;;;10.32;59.76;98250.13;4425571;32;20242;-92
2021/12/02 03:38:39;;;;;;;;;;;;;;;10.47;59.76;98250.22;4412237;32;20384;-90
2021/12/02 03:41:04;;;;;;;;;;;;;;;10.57;59.77;98248.78;4412145;32;20041;-91
2021/12/02 03:43:33;;;;;;;;;;;;;;;10.56;59.77;98244.50;4412401;32;19984;-92
2021/12/02 03:45:58;;;;;;;;;;;;;;;10.53;59.76;98242.06;4412377;32;19958;-91
2021/12/02 03:48:23;;;;;;;;;;;;;;;10.55;59.77;98235.84;4412525;32;20028;-92
2021/12/02 03:50:49;;;;;;;;;;;;;;;10.44;59.76;98233.03;4412094;32;20025;-92
2021/12/02 03:53:14;;;;;;;;;;;;;;;10.38;59.75;98234.19;4412478;32;19982;-91
2021/12/02 03:55:39;;;;;;;;;;;;;;;10.25;59.76;98233.19;4412072;32;20310;-92
2021/12/02 03:58:04;;;;;;;;;;;;;;;10.25;59.75;98227.16;4412225;32;20038;-94
2021/12/02 04:00:29;;;;;;;;;;;;;;;10.45;59.76;98234.72;4411832;32;20035;-93
2021/12/02 04:02:55;;;;;;;;;;;;;;;10.26;59.76;98237.47;4412636;32;19970;-90
2021/12/02 04:05:20;;;;;;;;;;;;;;;10.21;59.74;98234.31;4412243;32;20029;-90
2021/12/02 04:07:45;;;;;;;;;;;;;;;10.27;59.75;98233.13;4412228;32;19990;-91
2021/12/02 04:10:11;;;;;;;;;;;;;;;10.27;59.75;98235.72;4414149;32;19982;-88
2021/12/02 04:12:52;;;;;;;;;;;;;;;10.08;59.73;98239.28;4411998;32;20000;-87
2021/12/02 04:15:28;;;;;;;;;;;;;;;10.10;59.74;98254.78;4413779;32;20024;-89
2021/12/02 04:17:53;;;;;;;;;;;;;;;10.09;59.74;98246.16;4413097;32;20037;-89
2021/12/02 04:20:19;;;;;;;;;;;;;;;10.10;59.74;98250.44;4412318;32;20365;-89
2021/12/02 04:22:45;;;;;;;;;;;;;;;10.13;59.74;98245.06;4412455;32;20045;-89
2021/12/02 04:25:10;;;;;;;;;;;;;;;10.13;59.74;98257.22;4412684;32;20306;-90
2021/12/02 04:27:35;;;;;;;;;;;;;;;10.10;59.74;98247.84;4412027;32;20323;-90
2021/12/02 04:30:01;;;;;;;;;;;;;;;10.05;59.74;98254.22;4411736;32;19993;-88
2021/12/02 04:32:27;;;;;;;;;;;;;;;9.85;59.72;98257.84;4411859;32;20034;-90
2021/12/02 04:34:52;;;;;;;;;;;;;;;10.21;59.74;98254.25;4411886;32;22156;-92
2021/12/02 04:37:17;;;;;;;;;;;;;;;10.05;59.74;98249.00;4412378;32;19989;-92
2021/12/02 04:39:42;;;;;;;;;;;;;;;10.06;59.74;98243.72;4412574;32;20049;-92
2021/12/02 04:42:08;;;;;;;;;;;;;;;10.00;59.73;98249.25;4412394;32;20345;-90
2021/12/02 04:44:33;;;;;;;;;;;;;;;9.99;59.73;98249.34;4411850;32;20286;-89
2021/12/02 04:46:58;;;;;;;;;;;;;;;10.07;59.74;98247.16;4411739;32;20075;-88
2021/12/02 04:49:23;;;;;;;;;;;;;;;10.04;59.74;98234.34;4411851;32;19994;-88
2021/12/02 04:51:48;;;;;;;;;;;;;;;10.04;59.74;98236.94;4411648;32;20006;-90
2021/12/02 04:54:14;;;;;;;;;;;;;;;10.10;59.74;98231.41;4412149;32;19997;-91
2021/12/02 04:56:39;;;;;;;;;;;;;;;10.09;59.74;98240.97;4411962;32;20451;-90
2021/12/02 04:59:04;;;;;;;;;;;;;;;10.22;59.74;98241.19;4411661;32;20860;-91
2021/12/02 05:01:29;;;;;;;;;;;;;;;10.24;59.74;98243.69;4411020;32;19981;-91
2021/12/02 05:03:55;;;;;;;;;;;;;;;10.11;59.74;98239.09;4411961;32;19997;-91
2021/12/02 05:06:20;;;;;;;;;;;;;;;10.14;59.74;98246.75;4411357;32;20255;-93
2021/12/02 05:08:45;;;;;;;;;;;;;;;10.00;59.74;98238.03;4411838;32;20033;-91
2021/12/02 05:11:10;;;;;;;;;;;;;;;9.95;59.73;98248.66;4411735;32;19988;-91
2021/12/02 05:13:36;;;;;;;;;;;;;;;9.99;59.73;98265.78;4412939;32;19997;-91
2021/12/02 05:16:01;;;;;;;;;;;;;;;10.07;59.74;98271.41;4411947;32;20892;-90
2021/12/02 05:18:26;;;;;;;;;;;;;;;10.00;59.73;98271.81;4412539;32;20267;-91
2021/12/02 05:20:51;;;;;;;;;;;;;;;10.16;59.74;98267.44;4412324;32;24185;-92
2021/12/02 05:23:17;;;;;;;;;;;;;;;10.18;59.75;98264.81;4415182;32;20005;-92
2021/12/02 05:25:44;;;;;;;;;;;;;;;10.01;59.73;98263.94;4414174;32;20029;-91
2021/12/02 05:28:10;;;;;;;;;;;;;;;10.03;59.74;98256.06;4412344;32;20011;-90
2021/12/02 05:30:35;;;;;;;;;;;;;;;10.31;59.75;98253.66;4411962;32;19981;-88
2021/12/02 05:33:00;;;;;;;;;;;;;;;10.15;59.74;98251.00;4410855;32;20681;-88
2021/12/02 05:35:25;;;;;;;;;;;;;;;9.97;59.73;98251.19;4412649;32;20372;-92
2021/12/02 05:37:51;;;;;;;;;;;;;;;9.89;59.73;98241.19;4412475;32;20016;-92
2021/12/02 05:40:16;;;;;;;;;;;;;;;9.98;59.73;98247.66;4411754;32;19986;-95
2021/12/02 05:42:41;;;;;;;;;;;;;;;10.08;59.73;98254.87;4411459;32;20022;-93
2021/12/02 05:45:06;;;;;;;;;;;;;;;9.93;59.73;98247.03;4411522;32;20468;-92
2021/12/02 05:47:32;;;;;;;;;;;;;;;9.77;59.72;98249.63;4411855;32;20005;-93
2021/12/02 05:49:57;;;;;;;;;;;;;;;9.84;59.72;98240.59;4411460;32;20232;-93
2021/12/02 05:52:22;;;;;;;;;;;;;;;9.83;59.72;98242.34;4411070;32;20004;-93
2021/12/02 05:54:47;;;;;;;;;;;;;;;9.71;59.71;98242.19;4411538;32;20008;-93
2021/12/02 05:57:13;;;;;;;;;;;;;;;9.69;59.72;98241.37;4411137;32;20066;-93
2021/12/02 05:59:38;;;;;;;;;;;;;;;9.77;59.72;98245.28;4411876;32;20073;-93
2021/12/02 06:02:06;;;;;;;;;;;;;;;9.63;59.71;98244.31;4412649;32;19997;-94
2021/12/02 06:04:32;;;;;;;;;;;;;;;9.58;59.71;98244.56;4411819;32;20027;-94
2021/12/02 06:06:57;;;;;;;;;;;;;;;9.63;59.71;98239.13;4412078;32;19997;-93
2021/12/02 06:09:22;;;;;;;;;;;;;;;9.45;59.70;98241.75;4416171;32;19997;-93
2021/12/02 06:11:47;;;;;;;;;;;;;;;9.46;59.70;98238.25;4414787;32;19996;-94
2021/12/02 06:14:14;;;;;;;;;;;;;;;9.56;59.71;98237.75;4413812;32;20333;-93
2021/12/02 06:16:39;;;;;;;;;;;;;;;9.56;59.71;98235.16;4413289;32;19990;-93
2021/12/02 06:19:06;;;;;;;;;;;;;;;9.49;59.71;98240.69;4412734;32;20032;-93
2021/12/02 06:21:31;;;;;;;;;;;;;;;9.52;59.71;98240.53;4413306;32;19974;-92
2021/12/02 06:23:57;;;;;;;;;;;;;;;9.59;59.71;98243.62;4412645;32;24238;-90
2021/12/02 06:26:22;;;;;;;;;;;;;;;9.50;59.71;98244.12;4412971;32;20286;-92
2021/12/02 06:28:47;;;;;;;;;;;;;;;9.62;59.71;98250.44;4412879;32;19977;-92
2021/12/02 06:31:13;;;;;;;;;;;;;;;9.59;59.71;98245.41;4413147;32;19973;-94
2021/12/02 06:33:38;;;;;;;;;;;;;;;9.74;59.72;98242.00;4413119;32;24584;-94
2021/12/02 06:36:03;;;;;;;;;;;;;;;9.71;59.71;98242.19;4413030;32;20033;-93
2021/12/02 06:38:28;;;;;;;;;;;;;;;9.65;59.72;98240.72;4412922;32;20029;-93
2021/12/02 06:40:54;;;;;;;;;;;;;;;9.67;59.72;98236.28;4413012;32;19977;-93
2021/12/02 06:43:19;;;;;;;;;;;;;;;9.57;59.70;98239.44;4412680;32;21321;-92
2021/12/02 06:45:44;;;;;;;;;;;;;;;9.50;59.71;98244.97;4412656;32;20290;-93
2021/12/02 06:48:10;;;;;;;;;;;;;;;9.52;59.71;98250.06;4413237;32;19990;-93
2021/12/02 06:50:36;;;;;;;;;;;;;;;9.69;59.72;98246.59;4414542;32;19977;-96
2021/12/02 06:53:02;;;;;;;;;;;;;;;9.74;59.72;98250.66;4414077;32;19954;-95
2021/12/02 06:55:27;;;;;;;;;;;;;;;9.73;59.72;98256.75;4414832;32;19972;-95
2021/12/02 06:57:52;;;;;;;;;;;;;;;9.82;59.72;98269.25;4410128;32;19988;-96
2021/12/02 07:00:18;;;;;;;;;;;;;;;9.79;59.73;98260.78;4410261;32;20038;-96
2021/12/02 07:02:44;;;;;;;;;;;;;;;9.80;59.73;98267.66;4410464;32;19994;-96
2021/12/02 07:05:10;;;;;;;;;;;;;;;9.91;59.72;98272.28;4410501;32;20013;-94
2021/12/02 07:07:36;;;;;;;;;;;;;;;9.85;59.72;98270.84;4411090;32;19950;-96
2021/12/02 07:10:04;;;;;;;;;;;;;;;9.84;59.72;98274.38;4410341;32;19974;-96
2021/12/02 07:12:33;;;;;;;;;;;;;;;9.79;59.71;98281.56;4410267;32;19986;-95
2021/12/02 07:15:04;;;;;;;;;;;;;;;9.73;59.72;98289.69;4398227;32;19993;-95
2021/12/02 07:17:30;;;;;;;;;;;;;;;9.65;59.72;98291.84;4411342;32;20027;-95
2021/12/02 07:19:55;;;;;;;;;;;;;;;9.69;59.72;98285.56;4397568;32;19978;-95
2021/12/02 07:22:20;;;;;;;;;;;;;;;9.74;59.72;98279.22;4411750;32;20024;-96
2021/12/02 07:24:45;;;;;;;;;;;;;;;9.74;59.72;98291.38;4410743;32;20028;-96
2021/12/02 07:27:11;;;;;;;;;;;;;;;9.58;59.71;98283.53;4411922;32;19977;-96
2021/12/02 07:29:39;;;;;;;;;;;;;;;9.83;59.72;98278.72;4410008;32;20050;-96
2021/12/02 07:32:04;;;;;;;;;;;;;;;9.99;59.73;98286.56;4410374;32;19993;-96
2021/12/02 07:34:32;;;;;;;;;;;;;;;9.83;59.72;98285.69;4410455;32;20014;-96
2021/12/02 07:36:57;;;;;;;;;;;;;;;9.74;59.72;98294.81;4412568;32;19974;-96
2021/12/02 07:39:23;;;;;;;;;;;;;;;9.82;59.72;98290.06;4410603;32;20361;-95
2021/12/02 07:41:48;;;;;;;;;;;;;;;9.87;59.73;98286.37;4410247;32;19990;-96
2021/12/02 07:44:13;;;;;;;;;;;;;;;9.88;59.73;98294.09;4412698;32;20338;-96
2021/12/02 07:46:38;;;;;;;;;;;;;;;9.97;59.73;98298.81;4411351;32;20006;-96
2021/12/02 07:49:04;;;;;;;;;;;;;;;9.95;59.73;98298.06;4411998;32;20259;-96
2021/12/02 07:51:30;;;;;;;;;;;;;;;9.85;59.72;98296.84;4414384;32;19983;-96
2021/12/02 07:53:59;;;;;;;;;;;;;;;9.99;59.73;98293.53;4414724;32;19966;-96
2021/12/02 07:56:28;;;;;;;;;;;;;;;10.21;59.74;98294.09;4418739;32;19964;-96
2021/12/02 07:58:54;;;;;;;;;;;;;;;10.31;59.75;98302.25;4431870;32;19958;-96
2021/12/02 08:01:19;;;;;;;;;;;;;;;10.19;59.75;98297.69;4421451;32;19997;-96
2021/12/02 08:03:45;;;;;;;;;;;;;;;10.13;59.74;98304.84;4419045;32;19986;-96
2021/12/02 08:06:15;;;;;;;;;;;;;;;10.16;59.74;98296.06;4416849;32;20002;-96
2021/12/02 08:08:40;;;;;;;;;;;;;;;9.85;59.72;98309.84;4417751;32;19986;-96
2021/12/02 08:11:07;;;;;;;;;;;;;;;10.05;59.74;98304.44;4419018;32;19997;-96
2021/12/02 08:13:33;;;;;;;;;;;;;;;10.03;59.74;98303.69;4418685;32;20005;-96
2021/12/02 08:15:58;;;;;;;;;;;;;;;10.00;59.73;98306.44;4417644;32;19978;-96
2021/12/02 08:18:24;;;;;;;;;;;;;;;10.13;59.74;98294.47;4419257;32;19996;-96
2021/12/02 08:20:49;;;;;;;;;;;;;;;10.28;59.75;98299.81;4419641;32;20064;-96
2021/12/02 08:23:14;;;;;;;;;;;;;;;10.16;59.75;98304.69;4419986;32;20001;-96
2021/12/02 08:25:44;;;;;;;;;;;;;;;10.30;59.75;98301.41;4420757;32;19997;-95
2021/12/02 08:28:09;;;;;;;;;;;;;;;10.43;59.76;98307.63;4420693;32;19972;-96
2021/12/02 08:30:37;;;;;;;;;;;;;;;10.41;59.76;98319.88;4419862;32;19990;-96
2021/12/02 08:33:02;;;;;;;;;;;;;;;10.34;59.75;98317.69;4419257;32;20013;-96
2021/12/02 08:35:28;;;;;;;;;;;;;;;10.40;59.76;98325.13;4418915;32;20097;-96
2021/12/02 08:37:58;;;;;;;;;;;;;;;10.47;59.76;98321.31;4420707;32;20016;-96
2021/12/02 08:40:30;;;;;;;;;;;;;;;10.64;59.77;98322.97;4421870;32;19967;-94
2021/12/02 08:43:00;;;;;;;;;;;;;;;10.70;59.78;98317.44;4424682;32;20013;-96
2021/12/02 08:45:27;;;;;;;;;;;;;;;10.52;59.76;98329.69;4424816;32;19953;-96
2021/12/02 08:47:56;;;;;;;;;;;;;;;10.26;59.75;98325.91;4414445;32;19977;-96
2021/12/02 08:50:21;;;;;;;;;;;;;;;10.26;59.75;98331.09;4414766;32;20014;-95
2021/12/02 08:52:47;;;;;;;;;;;;;;;10.57;59.77;98329.44;4412361;32;19993;-94
2021/12/02 08:55:12;;;;;;;;;;;;;;;10.84;59.77;98332.28;4416467;32;19985;-94
2021/12/02 08:57:38;;;;;;;;;;;;;;;10.72;59.77;98329.44;4414862;32;20298;-95
2021/12/02 09:00:04;;;;;;;;;;;;;;;10.42;59.76;98328.53;4412784;32;20023;-95
2021/12/02 09:02:29;;;;;;;;;;;;;;;10.48;59.76;98327.34;4412462;32;20297;-95
2021/12/02 09:04:55;;;;;;;;;;;;;;;10.64;59.77;98325.56;4411774;32;20015;-95
2021/12/02 09:07:21;;;;;;;;;;;;;;;10.47;59.76;98318.72;4411347;32;20032;-95
2021/12/02 09:09:46;;;;;;;;;;;;;;;10.59;59.76;98318.03;4411280;32;20001;-95
2021/12/02 09:12:11;;;;;;;;;;;;;;;10.64;59.77;98316.00;4413173;32;20020;-95
2021/12/02 09:14:37;;;;;;;;;;;;;;;10.67;59.77;98321.06;4411672;32;20364;-95
2021/12/02 09:17:02;;;;;;;;;;;;;;;10.60;59.76;98314.50;4412795;32;20061;-94
2021/12/02 09:19:27;;;;;;;;;;;;;;;10.69;59.77;98315.78;4411708;32;19981;-95
2021/12/02 09:21:52;;;;;;;;;;;;;;;10.57;59.77;98303.41;4411838;32;19989;-95
2021/12/02 09:24:18;;;;;;;;;;;;;;;10.52;59.76;98308.03;4411946;32;20031;-94
2021/12/02 09:26:47;;;;;;;;;;;;;;;10.62;59.76;98306.59;4411301;32;19977;-96
2021/12/02 09:29:13;;;;;;;;;;;;;;;10.52;59.76;98303.69;4411663;32;20005;-93
2021/12/02 09:31:38;;;;;;;;;;;;;;;10.59;59.76;98296.38;4412794;32;20033;-93
2021/12/02 09:34:03;;;;;;;;;;;;;;;10.59;59.76;98288.56;4411788;32;19982;-93
2021/12/02 09:36:29;;;;;;;;;;;;;;;10.68;59.77;98285.47;4410549;32;20024;-94
2021/12/02 09:38:54;;;;;;;;;;;;;;;10.57;59.77;98283.44;4411313;32;20314;-95
2021/12/02 09:41:19;;;;;;;;;;;;;;;10.70;59.78;98273.22;4411303;32;20016;-96
2021/12/02 09:43:44;;;;;;;;;;;;;;;10.82;59.78;98274.25;4414217;32;19987;-96
2021/12/02 09:46:10;;;;;;;;;;;;;;;10.76;59.77;98271.09;4412536;32;19997;-95
2021/12/02 09:48:35;;;;;;;;;;;;;;;10.79;59.78;98266.62;4413114;32;20013;-95
2021/12/02 09:53:34;;;;;;;;;;;;;;;10.68;59.77;98268.09;4414525;32;19982;-94
2021/12/02 09:58:33;;;;;;;;;;;;;;;10.66;59.77;98254.31;4414763;32;19965;-94
2021/12/02 10:01:06;;;;;;;;;;;;;;;10.49;59.76;98261.38;4413564;32;20025;-95
2021/12/02 10:03:34;;;;;;;;;;;;;;;10.62;59.76;98260.59;4415546;32;20367;-95
2021/12/02 10:06:00;;;;;;;;;;;;;;;10.69;59.78;98251.56;4419605;32;19966;-95
2021/12/02 10:08:28;;;;;;;;;;;;;;;10.53;59.76;98255.91;4419267;32;20013;-94
2021/12/02 10:10:57;;;;;;;;;;;;;;;10.60;59.76;98246.84;4425705;32;20044;-95
2021/12/02 10:13:30;;;;;;;;;;;;;;;10.57;59.77;98249.63;4423852;32;20039;-95
2021/12/02 10:16:03;;;;;;;;;;;;;;;10.49;59.76;98248.37;4422757;32;20032;-95
2021/12/02 10:21:30;;;;;;;;;;;;;;;10.79;59.78;98245.81;4412544;32;20001;-96
2021/12/02 10:23:58;;;;;;;;;;;;;;;10.66;59.77;98243.09;4423934;32;19997;-96
2021/12/02 10:26:25;;;;;;;;;;;;;;;10.40;59.76;98240.13;4424888;32;19978;-95
2021/12/02 10:28:52;;;;;;;;;;;;;;;10.60;59.77;98235.59;4424608;32;20009;-96
2021/12/02 10:31:21;;;;;;;;;;;;;;;10.52;59.76;98240.41;4431956;32;19970;-94
2021/12/02 10:33:50;;;;;;;;;;;;;;;10.64;59.77;98234.50;4428324;32;19983;-94
2021/12/02 10:36:24;;;;;;;;;;;;;;;10.61;59.76;98230.31;4423353;32;19958;-95
2021/12/02 10:38:49;;;;;;;;;;;;;;;10.53;59.76;98223.88;4423528;32;19986;-95
2021/12/02 10:41:21;;;;;;;;;;;;;;;10.56;59.77;98221.94;4423715;32;20287;-95
2021/12/02 10:44:05;;;;;;;;;;;;;;;10.68;59.76;98218.66;4422438;32;19974;-94
2021/12/02 10:46:30;;;;;;;;;;;;;;;10.68;59.77;98223.84;4423020;32;19986;-95
2021/12/02 10:48:55;;;;;;;;;;;;;;;10.57;59.77;98221.00;4423032;32;20023;-95
2021/12/02 10:51:37;;;;;;;;;;;;;;;10.72;59.77;98219.31;4423232;32;20307;-95
2021/12/02 10:54:03;;;;;;;;;;;;;;;10.65;59.77;98211.00;4423283;32;20034;-95
2021/12/02 10:56:34;;;;;;;;;;;;;;;10.74;59.77;98213.09;4423391;32;20357;-95
2021/12/02 10:59:19;;;;;;;;;;;;;;;10.74;59.77;98205.28;4422709;32;19990;-94
2021/12/02 11:01:44;;;;;;;;;;;;;;;10.66;59.77;98197.09;4423858;32;20008;-94
2021/12/02 11:04:12;;;;;;;;;;;;;;;10.86;59.78;98197.69;4423448;32;20013;-96
2021/12/02 11:06:41;;;;;;;;;;;;;;;10.73;59.77;98201.00;4426575;32;19969;-95
2021/12/02 11:09:22;;;;;;;;;;;;;;;10.68;59.76;98192.63;4423132;32;20396;-95
2021/12/02 11:11:47;;;;;;;;;;;;;;;10.84;59.79;98189.13;4423842;32;20635;-95
2021/12/02 11:14:13;;;;;;;;;;;;;;;10.77;59.78;98186.03;4424175;32;19970;-94
2021/12/02 11:16:38;;;;;;;;;;;;;;;10.78;59.77;98182.50;4428236;32;20017;-94
2021/12/02 11:19:19;;;;;;;;;;;;;;;10.69;59.76;98183.06;4426304;32;19986;-95
2021/12/02 11:21:44;;;;;;;;;;;;;;;10.60;59.76;98191.38;4423077;32;19998;-95
2021/12/02 11:24:09;;;;;;;;;;;;;;;10.60;59.76;98184.41;4423608;32;20021;-94
2021/12/02 11:26:34;;;;;;;;;;;;;;;10.56;59.77;98182.91;4424974;32;20017;-92
2021/12/02 11:29:29;;;;;;;;;;;;;;;10.50;59.76;98185.03;4406769;32;19993;-94
2021/12/02 11:31:54;;;;;;;;;;;;;;;10.67;59.76;98175.34;4403013;32;19969;-93
2021/12/02 11:34:29;;;;;;;;;;;;;;;10.83;59.77;98174.44;4412822;32;20027;-92
2021/12/02 11:37:11;;;;;;;;;;;;;;;10.66;59.77;98183.22;4413295;32;19996;-94
2021/12/02 11:39:42;;;;;;;;;;;;;;;10.59;59.76;98174.91;4414567;32;19990;-94
2021/12/02 11:42:37;;;;;;;;;;;;;;;10.75;59.77;98178.31;4413737;32;19997;-94
2021/12/02 11:45:30;;;;;;;;;;;;;;;10.66;59.77;98167.62;4417574;32;20038;-94
2021/12/02 11:48:18;;;;;;;;;;;;;;;10.64;59.77;98174.66;4428675;32;19990;-95
2021/12/02 11:51:16;;;;;;;;;;;;;;;;;;;;;
2021/12/02 11:53:42;;;;;;;;;;;;;;;10.69;59.77;98167.44;4410524;32;35088;-94
2021/12/02 11:56:15;;;;;;;;;;;;;;;10.54;59.76;98163.09;4398187;32;19986;-95
2021/12/02 12:15:38;;;;;;;;;;;;;;;10.32;59.76;98156.50;5189436;27;21071;-92
2021/12/02 12:18:04;;;;;;;;;;;;;;;10.35;59.75;98151.13;4452309;32;19949;-92
2021/12/02 12:20:48;;;;;;;;;;;;;;;10.24;59.74;98144.88;4440974;32;19995;-95
2021/12/02 12:23:32;;;;;;;;;;;;;;;10.00;59.73;98140.09;4453921;32;20020;-94
2021/12/02 12:26:10;;;;;;;;;;;;;;;10.12;59.74;98136.78;4454855;32;20012;-94
2021/12/02 12:38:05;;;;;;;;;;;;;;;;;;;;;
2021/12/02 12:40:38;;;;;;;;;;;;;;;10.30;59.75;98128.91;4434207;32;36005;-93
2021/12/02 12:46:27;;;;;;;;;;;;;;;10.08;59.73;98130.09;4417791;32;20021;-94
2021/12/02 12:48:53;;;;;;;;;;;;;;;10.05;59.74;98125.06;4438667;32;19993;-95
2021/12/02 12:51:55;;;;;;;;;;;;;;;10.12;59.74;98129.00;4440198;32;19984;-94
2021/12/02 12:54:40;;;;;;;;;;;;;;;;;;;;;
2021/12/02 12:57:05;;;;;;;;;;;;;;;10.15;59.74;98136.63;4431304;32;889613;-93
2021/12/02 12:59:31;;;;;;;;;;;;;;;10.14;59.74;98136.69;4440522;32;20008;-94
2021/12/02 13:02:06;;;;;;;;;;;;;;;10.17;59.75;98128.72;4440482;32;19993;-94
2021/12/02 13:04:42;;;;;;;;;;;;;;;10.18;59.74;98121.78;4441024;32;19974;-94
2021/12/02 13:07:08;;;;;;;;;;;;;;;10.23;59.74;98122.41;4441609;32;19989;-93
2021/12/02 13:09:40;;;;;;;;;;;;;;;10.00;59.73;98121.06;4455854;32;20061;-93
2021/12/02 13:12:06;;;;;;;;;;;;;;;9.94;59.74;98117.03;4440598;32;19974;-93
2021/12/02 13:14:31;;;;;;;;;;;;;;;9.90;59.73;98118.09;4440710;32;19988;-93
2021/12/02 13:16:56;;;;;;;;;;;;;;;9.80;59.73;98107.41;4440528;32;20009;-95
2021/12/02 13:19:22;;;;;;;;;;;;;;;9.95;59.73;98118.72;4440097;32;20023;-94
2021/12/02 13:21:50;;;;;;;;;;;;;;;9.95;59.73;98116.13;4440107;32;19995;-93
2021/12/02 13:24:19;;;;;;;;;;;;;;;9.94;59.72;98124.00;4427606;32;19996;-93
2021/12/02 13:26:45;;;;;;;;;;;;;;;9.98;59.73;98121.13;4441487;32;20007;-93
2021/12/02 13:29:10;;;;;;;;;;;;;;;10.16;59.75;98135.69;4439979;32;19993;-92
2021/12/02 13:31:36;;;;;;;;;;;;;;;10.00;59.73;98134.88;4452566;32;20035;-93
2021/12/02 13:34:11;;;;;;;;;;;;;;;10.03;59.73;98131.28;4440269;32;20288;-95
2021/12/02 13:36:57;;;;;;;;;;;;;;;10.22;59.74;98124.16;4427800;32;19993;-94
2021/12/02 13:39:26;;;;;;;;;;;;;;;10.34;59.75;98130.41;4427954;32;19978;-95
2021/12/02 13:41:55;;;;;;;;;;;;;;;10.34;59.75;98128.66;4440950;32;20318;-95
2021/12/02 13:44:27;;;;;;;;;;;;;;;10.38;59.75;98129.31;4439625;32;19945;-94